createdAt,value
2023-03-02T00:01:49.859Z,23.07
2023-03-02T00:04:20.864Z,23.50
2023-03-02T00:06:49.894Z,24.97
2023-03-02T00:09:19.103Z,22.73
2023-03-02T00:11:47.237Z,23.90
2023-03-02T00:14:15.727Z,23.23
2023-03-02T00:16:45.166Z,23.17
2023-03-02T00:19:14.321Z,21.93
2023-03-02T00:21:42.799Z,22.00
2023-03-02T00:24:10.907Z,24.63
2023-03-02T00:26:39.027Z,22.43
2023-03-02T00:29:07.221Z,23.53
2023-03-02T00:31:35.606Z,23.27
2023-03-02T00:34:03.419Z,23.40
2023-03-02T00:36:32.944Z,21.67
2023-03-02T00:39:00.760Z,24.83
2023-03-02T00:41:28.992Z,22.03
2023-03-02T00:43:57.099Z,21.37
2023-03-02T00:46:26.230Z,23.97
2023-03-02T00:48:54.500Z,20.40
2023-03-02T00:51:23.017Z,22.73
2023-03-02T00:53:52.154Z,24.73
2023-03-02T00:56:20.760Z,20.27
2023-03-02T00:58:51.526Z,23.37
2023-03-02T01:01:19.934Z,23.23
2023-03-02T01:03:51.293Z,24.07
2023-03-02T01:06:22.547Z,21.73
2023-03-02T01:08:51.859Z,23.57
2023-03-02T01:11:22.181Z,26.37
2023-03-02T01:13:51.186Z,22.33
2023-03-02T01:16:19.701Z,22.27
2023-03-02T01:18:47.714Z,23.67
2023-03-02T01:21:17.248Z,22.43
2023-03-02T01:23:45.636Z,23.17
2023-03-02T01:26:15.036Z,26.40
2023-03-02T01:28:43.395Z,22.07
2023-03-02T01:31:11.213Z,23.17
2023-03-02T01:33:39.186Z,23.33
2023-03-02T01:36:08.109Z,21.77
2023-03-02T01:38:36.526Z,24.50
2023-03-02T01:41:04.352Z,24.03
2023-03-02T01:43:33.659Z,24.73
2023-03-02T01:46:03.899Z,22.60
2023-03-02T01:48:48.196Z,24.50
2023-03-02T01:51:23.787Z,24.17
2023-03-02T01:53:55.649Z,21.07
2023-03-02T01:56:27.969Z,22.03
2023-03-02T01:59:02.378Z,21.03
2023-03-02T02:01:33.155Z,21.80
2023-03-02T02:04:01.783Z,22.70
2023-03-02T02:06:33.941Z,23.83
2023-03-02T02:09:04.751Z,21.23
2023-03-02T02:11:32.713Z,22.40
2023-03-02T02:14:03.153Z,19.67
2023-03-02T02:16:34.864Z,25.00
2023-03-02T02:19:04.751Z,21.53
2023-03-02T02:21:32.892Z,23.87
2023-03-02T02:24:08.802Z,22.57
2023-03-02T02:26:42.438Z,21.33
2023-03-02T02:29:14.702Z,23.10
2023-03-02T02:31:48.055Z,24.80
2023-03-02T02:34:23.577Z,21.33
2023-03-02T02:36:56.275Z,21.40
2023-03-02T02:39:30.022Z,23.03
2023-03-02T02:42:03.854Z,22.37
2023-03-02T02:44:32.550Z,21.30
2023-03-02T02:47:01.824Z,22.30
2023-03-02T02:49:35.164Z,20.93
2023-03-02T02:52:04.217Z,20.87
2023-03-02T02:54:33.453Z,22.53
2023-03-02T02:57:04.491Z,20.03
2023-03-02T02:59:35.197Z,24.83
2023-03-02T03:02:04.208Z,20.97
2023-03-02T03:04:33.381Z,23.53
2023-03-02T03:07:03.529Z,19.97
2023-03-02T03:09:32.232Z,21.70
2023-03-02T03:12:08.156Z,21.83
2023-03-02T03:14:39.330Z,21.23
2023-03-02T03:17:12.192Z,21.70
2023-03-02T03:19:46.486Z,22.53
2023-03-02T03:22:16.819Z,22.27
2023-03-02T03:24:47.571Z,24.47
2023-03-02T03:27:18.214Z,21.27
2023-03-02T03:29:49.144Z,22.33
2023-03-02T03:32:20.389Z,22.53
2023-03-02T03:34:50.778Z,25.30
2023-03-02T03:37:26.819Z,25.13
2023-03-02T03:39:54.723Z,24.00
2023-03-02T03:42:24.224Z,21.47
2023-03-02T03:44:53.649Z,21.10
2023-03-02T03:47:22.456Z,21.70
2023-03-02T03:49:51.743Z,23.30
2023-03-02T03:52:30.328Z,22.53
2023-03-02T03:55:04.099Z,24.60
2023-03-02T03:57:33.857Z,25.03
2023-03-02T04:00:01.925Z,24.77
2023-03-02T04:02:30.080Z,24.13
2023-03-02T04:05:03.587Z,26.33
2023-03-02T04:07:31.497Z,24.63
2023-03-02T04:10:03.910Z,25.70
2023-03-02T04:12:39.669Z,23.60
2023-03-02T04:15:10.268Z,23.83
2023-03-02T04:17:38.534Z,21.67
2023-03-02T04:20:09.354Z,23.70
2023-03-02T04:22:38.790Z,26.20
2023-03-02T04:25:07.843Z,24.10
2023-03-02T04:27:37.677Z,22.80
2023-03-02T04:30:07.311Z,26.13
2023-03-02T04:32:36.156Z,22.67
2023-03-02T04:35:05.162Z,23.23
2023-03-02T04:37:33.153Z,22.27
2023-03-02T04:40:01.027Z,21.87
2023-03-02T04:42:28.907Z,22.17
2023-03-02T04:44:58.313Z,24.93
2023-03-02T04:47:26.954Z,23.03
2023-03-02T04:49:56.572Z,20.80
2023-03-02T04:52:25.012Z,25.00
2023-03-02T04:54:52.860Z,25.30
2023-03-02T04:57:20.550Z,21.47
2023-03-02T04:59:48.207Z,22.47
2023-03-02T05:02:17.585Z,20.97
2023-03-02T05:04:46.069Z,23.27
2023-03-02T05:07:13.901Z,23.53
2023-03-02T05:09:42.549Z,23.17
2023-03-02T05:12:10.333Z,24.40
2023-03-02T05:14:38.217Z,22.43
2023-03-02T05:17:06.133Z,24.80
2023-03-02T05:19:35.258Z,22.93
2023-03-02T05:22:03.302Z,26.60
2023-03-02T05:24:31.085Z,24.77
2023-03-02T05:26:58.855Z,22.10
2023-03-02T05:29:26.610Z,24.73
2023-03-02T05:31:54.496Z,21.93
2023-03-02T05:34:22.678Z,22.70
2023-03-02T05:36:51.775Z,23.77
2023-03-02T05:39:19.525Z,26.30
2023-03-02T05:41:47.805Z,24.83
2023-03-02T05:44:15.654Z,24.67
2023-03-02T05:46:44.152Z,21.17
2023-03-02T05:49:11.914Z,24.17
2023-03-02T05:51:39.660Z,24.87
2023-03-02T05:54:08.719Z,22.73
2023-03-02T05:56:36.714Z,23.57
2023-03-02T05:59:04.692Z,23.07
2023-03-02T06:01:33.100Z,23.73
2023-03-02T06:04:01.117Z,24.57
2023-03-02T06:06:29.014Z,21.67
2023-03-02T06:08:56.938Z,23.93
2023-03-02T06:11:26.556Z,24.57
2023-03-02T06:13:54.486Z,24.10
2023-03-02T06:16:22.446Z,25.00
2023-03-02T06:18:50.177Z,23.13
2023-03-02T06:21:17.898Z,23.27
2023-03-02T06:23:46.646Z,23.77
2023-03-02T06:26:14.842Z,24.33
2023-03-02T06:28:52.638Z,24.93
2023-03-02T06:31:22.272Z,26.63
2023-03-02T06:33:51.291Z,20.50
2023-03-02T06:36:19.520Z,25.10
2023-03-02T06:38:47.751Z,24.27
2023-03-02T06:41:15.940Z,28.50
2023-03-02T06:43:45.969Z,24.53
2023-03-02T06:46:14.087Z,23.27
2023-03-02T06:48:42.841Z,23.10
2023-03-02T06:51:12.566Z,22.17
2023-03-02T06:53:40.393Z,24.40
2023-03-02T06:56:09.629Z,23.07
2023-03-02T06:58:38.293Z,21.67
2023-03-02T07:01:08.734Z,23.33
2023-03-02T07:03:37.199Z,21.33
2023-03-02T07:06:05.699Z,22.23
2023-03-02T07:08:33.840Z,21.30
2023-03-02T07:11:06.733Z,21.93
2023-03-02T07:13:34.691Z,22.00
2023-03-02T07:16:08.857Z,21.60
2023-03-02T07:18:37.039Z,21.17
2023-03-02T07:21:06.289Z,24.23
2023-03-02T07:23:34.747Z,21.90
2023-03-02T07:26:02.550Z,21.60
2023-03-02T07:28:30.499Z,24.97
2023-03-02T07:30:58.707Z,23.10
2023-03-02T07:33:27.976Z,22.30
2023-03-02T07:35:55.692Z,23.13
2023-03-02T07:38:24.312Z,26.87
2023-03-02T07:40:53.724Z,21.63
2023-03-02T07:43:21.603Z,22.37
2023-03-02T07:45:49.388Z,21.30
2023-03-02T07:48:17.422Z,24.47
2023-03-02T07:50:46.773Z,22.70
2023-03-02T07:53:14.615Z,23.90
2023-03-02T07:55:44.148Z,22.40
2023-03-02T07:58:12.594Z,23.63
2023-03-02T08:00:42.635Z,21.23
2023-03-02T08:03:10.983Z,23.20
2023-03-02T08:05:38.959Z,20.53
2023-03-02T08:08:08.426Z,20.33
2023-03-02T08:10:36.818Z,19.90
2023-03-02T08:13:06.025Z,20.50
2023-03-02T08:15:33.829Z,21.20
2023-03-02T08:18:01.906Z,21.63
2023-03-02T08:20:29.627Z,22.67
2023-03-02T08:22:58.821Z,20.13
2023-03-02T08:25:28.894Z,23.00
2023-03-02T08:27:57.636Z,23.37
2023-03-02T08:30:25.402Z,24.50
2023-03-02T08:32:53.258Z,21.30
2023-03-02T08:35:22.595Z,20.33
2023-03-02T08:37:50.379Z,23.57
2023-03-02T08:40:18.563Z,22.27
2023-03-02T08:42:49.866Z,25.07
2023-03-02T08:45:19.488Z,21.10
2023-03-02T08:47:47.689Z,21.13
2023-03-02T08:50:15.623Z,23.37
2023-03-02T08:52:45.218Z,21.73
2023-03-02T08:55:14.044Z,22.00
2023-03-02T08:57:44.779Z,20.90
2023-03-02T09:00:16.389Z,20.40
2023-03-02T09:02:46.212Z,19.85
2023-03-02T09:05:14.403Z,23.43
2023-03-02T09:07:43.186Z,21.50
2023-03-02T09:10:12.005Z,24.47
2023-03-02T09:12:39.730Z,23.20
2023-03-02T09:15:08.498Z,21.03
2023-03-02T09:17:37.662Z,28.55
2023-03-02T09:20:06.778Z,22.42
2023-03-02T09:22:35.793Z,22.60
2023-03-02T09:25:05.501Z,25.77
2023-03-02T09:27:34.259Z,27.42
2023-03-02T09:30:03.224Z,28.35
2023-03-02T09:32:31.048Z,26.23
2023-03-02T09:35:00.226Z,25.10
2023-03-02T09:37:29.341Z,25.20
2023-03-02T09:39:57.276Z,26.25
2023-03-02T09:42:44.415Z,26.85
2023-03-02T09:45:45.267Z,23.60
2023-03-02T09:48:21.978Z,28.50
2023-03-02T09:51:04.191Z,25.40
2023-03-02T09:53:47.406Z,25.33
2023-03-02T09:56:17.619Z,22.92
2023-03-02T09:58:53.904Z,24.45
2023-03-02T10:01:33.139Z,24.75
2023-03-02T10:04:09.290Z,24.63
2023-03-02T10:06:38.461Z,23.60
2023-03-02T10:09:07.603Z,25.27
2023-03-02T10:11:46.125Z,26.05
2023-03-02T10:14:19.158Z,23.40
2023-03-02T10:16:50.100Z,27.15
2023-03-02T10:19:25.059Z,24.23
2023-03-02T10:22:01.668Z,26.10
2023-03-02T10:24:36.079Z,22.17
2023-03-02T10:27:15.785Z,22.35
2023-03-02T10:29:52.107Z,23.60
2023-03-02T10:32:22.797Z,21.42
2023-03-02T10:34:51.858Z,21.73
2023-03-02T10:37:25.239Z,25.85
2023-03-02T10:39:53.191Z,25.25
2023-03-02T10:42:26.974Z,23.42
2023-03-02T10:44:58.377Z,22.77
2023-03-02T10:47:28.125Z,22.73
2023-03-02T10:49:57.430Z,19.20
2023-03-02T10:52:28.613Z,22.75
2023-03-02T10:55:03.912Z,22.10
2023-03-02T10:57:37.800Z,22.45
2023-03-02T11:00:16.509Z,24.67
2023-03-02T11:02:52.323Z,21.23
2023-03-02T11:05:24.154Z,23.45
2023-03-02T11:07:57.918Z,25.40
2023-03-02T11:10:29.018Z,22.67
2023-03-02T11:12:56.960Z,21.45
2023-03-02T11:15:28.103Z,22.33
2023-03-02T11:18:04.268Z,19.52
2023-03-02T11:20:35.569Z,22.10
2023-03-02T11:23:27.766Z,22.00
2023-03-02T11:25:58.761Z,20.58
2023-03-02T11:28:47.209Z,20.05
2023-03-02T11:31:22.815Z,18.67
2023-03-02T11:34:17.351Z,23.15
2023-03-02T11:36:57.332Z,20.75
2023-03-02T11:39:32.734Z,21.27
2023-03-02T11:42:00.482Z,22.60
2023-03-02T11:44:29.690Z,22.13
2023-03-02T11:47:02.365Z,19.65
2023-03-02T11:49:39.222Z,20.55
2023-03-02T11:52:17.041Z,21.45
2023-03-02T11:54:50.470Z,18.77
2023-03-02T11:57:23.257Z,21.58
2023-03-02T11:59:53.351Z,18.45
2023-03-02T12:02:21.741Z,22.35
2023-03-02T12:04:50.018Z,19.27
2023-03-02T12:07:22.748Z,19.63
2023-03-02T12:10:03.556Z,18.48
2023-03-02T12:12:41.221Z,19.48
2023-03-02T12:15:38.664Z,20.55
2023-03-02T12:18:55.420Z,19.85
2023-03-02T12:21:24.669Z,20.45
2023-03-02T12:23:59.463Z,19.70
2023-03-02T12:26:34.050Z,17.48
2023-03-02T12:29:05.845Z,19.88
2023-03-02T12:31:45.961Z,17.40
2023-03-02T12:34:36.703Z,18.73
2023-03-02T12:37:09.262Z,18.83
2023-03-02T12:40:12.271Z,17.38
2023-03-02T12:43:18.282Z,19.60
2023-03-02T12:46:08.953Z,18.13
2023-03-02T12:48:44.478Z,17.00
2023-03-02T12:51:19.518Z,18.00
2023-03-02T12:53:49.410Z,18.00
2023-03-02T12:56:24.818Z,18.75
2023-03-02T12:58:55.415Z,18.42
2023-03-02T13:01:25.220Z,20.08
2023-03-02T13:03:54.506Z,18.05
2023-03-02T13:06:25.341Z,17.90
2023-03-02T13:08:57.608Z,17.00
2023-03-02T13:11:28.896Z,22.60
2023-03-02T13:13:59.293Z,17.48
2023-03-02T13:16:29.914Z,16.52
2023-03-02T13:18:59.990Z,16.33
2023-03-02T13:21:32.436Z,17.63
2023-03-02T13:24:00.727Z,21.83
2023-03-02T13:26:30.897Z,19.60
2023-03-02T13:29:06.033Z,16.13
2023-03-02T13:31:35.320Z,20.27
2023-03-02T13:34:03.243Z,15.90
2023-03-02T13:36:35.606Z,19.10
2023-03-02T13:39:07.125Z,16.85
2023-03-02T13:41:37.252Z,15.85
2023-03-02T13:44:19.709Z,18.52
2023-03-02T13:46:48.472Z,19.17
2023-03-02T13:49:27.804Z,18.52
2023-03-02T13:52:02.058Z,19.40
2023-03-02T13:54:32.637Z,18.05
2023-03-02T13:57:03.181Z,18.30
2023-03-02T13:59:33.076Z,14.27
2023-03-02T14:02:01.104Z,19.52
2023-03-02T14:04:29.310Z,17.95
2023-03-02T14:06:57.100Z,18.27
2023-03-02T14:09:27.445Z,17.55
2023-03-02T14:11:57.721Z,17.48
2023-03-02T14:14:28.809Z,19.75
2023-03-02T14:16:58.241Z,15.10
2023-03-02T14:19:26.489Z,18.92
2023-03-02T14:21:54.186Z,15.93
2023-03-02T14:24:21.993Z,16.75
2023-03-02T14:26:50.641Z,17.17
2023-03-02T14:29:23.876Z,17.58
2023-03-02T14:31:52.347Z,16.33
2023-03-02T14:34:21.507Z,16.73
2023-03-02T14:36:51.532Z,12.88
2023-03-02T14:39:22.726Z,18.02
2023-03-02T14:41:54.066Z,15.77
2023-03-02T14:44:23.441Z,15.77
2023-03-02T14:46:51.628Z,15.73
2023-03-02T14:49:20.783Z,17.15
2023-03-02T14:51:56.473Z,15.20
2023-03-02T14:54:24.603Z,15.85
2023-03-02T14:56:53.253Z,15.57
2023-03-02T14:59:21.048Z,17.33
2023-03-02T15:01:49.355Z,16.42
2023-03-02T15:04:17.167Z,15.52
2023-03-02T15:11:00.473Z,16.92
2023-03-02T15:17:44.147Z,19.95
2023-03-02T15:20:15.495Z,18.75
2023-03-02T15:22:44.763Z,18.27
2023-03-02T15:25:13.133Z,17.58
2023-03-02T15:27:44.152Z,17.23
2023-03-02T15:30:13.144Z,17.23
2023-03-02T15:32:41.194Z,15.70
2023-03-02T15:35:09.873Z,15.95
2023-03-02T15:37:37.525Z,19.17
2023-03-02T15:40:06.462Z,17.50
2023-03-02T15:42:34.317Z,14.38
2023-03-02T15:45:03.393Z,17.42
2023-03-02T15:47:33.433Z,19.30
2023-03-02T15:50:01.405Z,16.35
2023-03-02T15:52:29.094Z,15.85
2023-03-02T15:54:56.898Z,15.48
2023-03-02T15:57:24.635Z,22.02
2023-03-02T15:59:52.672Z,18.92
2023-03-02T16:02:21.657Z,16.10
2023-03-02T16:04:49.453Z,19.45
2023-03-02T16:07:17.181Z,16.92
2023-03-02T16:09:46.495Z,17.30
2023-03-02T16:12:14.266Z,16.40
2023-03-02T16:14:42.219Z,17.55
2023-03-02T16:17:10.155Z,17.95
2023-03-02T16:19:39.341Z,17.25
2023-03-02T16:22:07.582Z,15.80
2023-03-02T16:24:35.784Z,21.67
2023-03-02T16:27:04.884Z,17.80
2023-03-02T16:29:32.603Z,20.00
2023-03-02T16:32:00.454Z,15.85
2023-03-02T16:34:28.330Z,17.80
2023-03-02T16:36:57.498Z,17.48
2023-03-02T16:39:25.512Z,18.70
2023-03-02T16:41:53.477Z,14.77
2023-03-02T16:44:21.412Z,16.30
2023-03-02T16:46:49.113Z,17.60
2023-03-02T16:49:16.899Z,16.50
2023-03-02T16:51:45.658Z,13.65
2023-03-02T16:54:17.756Z,18.83
2023-03-02T16:56:47.232Z,16.45
2023-03-02T16:59:15.309Z,16.60
2023-03-02T17:01:45.306Z,20.23
2023-03-02T17:04:13.230Z,18.55
2023-03-02T17:06:59.725Z,21.08
2023-03-02T17:09:29.809Z,23.65
2023-03-02T17:11:57.885Z,20.95
2023-03-02T17:14:25.762Z,22.17
2023-03-02T17:16:53.762Z,17.80
2023-03-02T17:19:21.781Z,22.88
2023-03-02T17:21:49.958Z,18.52
2023-03-02T17:24:17.637Z,18.77
2023-03-02T17:26:47.457Z,18.10
2023-03-02T17:29:15.177Z,17.40
2023-03-02T17:31:43.365Z,23.70
2023-03-02T17:34:11.595Z,20.40
2023-03-02T17:36:39.918Z,16.13
2023-03-02T17:39:08.020Z,17.30
2023-03-02T17:41:36.492Z,21.63
2023-03-02T17:44:06.390Z,19.35
2023-03-02T17:46:34.322Z,22.98
2023-03-02T17:49:02.268Z,18.40
2023-03-02T17:51:30.432Z,20.95
2023-03-02T17:53:58.161Z,21.60
2023-03-02T17:56:28.212Z,18.00
2023-03-02T17:58:57.380Z,20.15
2023-03-02T18:01:27.233Z,21.10
2023-03-02T18:03:55.371Z,21.15
2023-03-02T18:06:23.120Z,19.00
2023-03-02T18:08:52.684Z,21.02
2023-03-02T18:11:24.194Z,21.60
2023-03-02T18:13:54.722Z,24.02
2023-03-02T18:16:22.621Z,20.83
2023-03-02T18:18:53.817Z,18.63
2023-03-02T18:21:22.708Z,19.52
2023-03-02T18:23:50.774Z,21.45
2023-03-02T18:26:18.891Z,18.02
2023-03-02T18:28:48.180Z,20.33
2023-03-02T18:31:17.182Z,17.08
2023-03-02T18:33:47.901Z,19.65
2023-03-02T18:36:17.709Z,18.38
2023-03-02T18:38:47.101Z,19.40
2023-03-02T18:41:15.181Z,20.75
2023-03-02T18:43:44.281Z,17.38
2023-03-02T18:46:20.457Z,19.10
2023-03-02T18:48:49.728Z,17.92
2023-03-02T18:51:19.372Z,17.42
2023-03-02T18:53:48.913Z,14.32
2023-03-02T18:56:16.770Z,17.10
2023-03-02T18:58:46.423Z,20.70
2023-03-02T19:01:14.945Z,14.00
2023-03-02T19:03:46.478Z,13.45
2023-03-02T19:06:15.785Z,14.60
2023-03-02T19:08:48.096Z,17.58
2023-03-02T19:11:15.887Z,15.82
2023-03-02T19:13:44.295Z,13.80
2023-03-02T19:16:13.162Z,14.00
2023-03-02T19:18:41.160Z,13.43
2023-03-02T19:21:09.019Z,12.32
2023-03-02T19:23:36.815Z,12.05
2023-03-02T19:26:06.518Z,11.50
2023-03-02T19:28:36.113Z,11.57
2023-03-02T19:31:06.732Z,12.63
2023-03-02T19:33:34.812Z,14.55
2023-03-02T19:36:02.702Z,13.18
2023-03-02T19:38:30.504Z,11.57
2023-03-02T19:40:59.507Z,11.63
2023-03-02T19:43:29.432Z,13.48
2023-03-02T19:45:57.201Z,14.00
2023-03-02T19:48:25.616Z,11.80
2023-03-02T19:50:54.065Z,12.48
2023-03-02T19:53:21.891Z,12.07
2023-03-02T19:55:51.567Z,12.85
2023-03-02T19:58:20.534Z,12.05
2023-03-02T20:00:49.901Z,11.90
2023-03-02T20:03:17.708Z,13.68
2023-03-02T20:05:45.758Z,14.68
2023-03-02T20:08:14.746Z,15.57
2023-03-02T20:10:45.451Z,18.27
2023-03-02T20:13:13.736Z,11.48
2023-03-02T20:15:44.726Z,13.63
2023-03-02T20:18:16.472Z,15.30
2023-03-02T20:20:45.684Z,14.00
2023-03-02T20:23:13.905Z,13.18
2023-03-02T20:25:41.635Z,13.13
2023-03-02T20:28:12.967Z,10.93
2023-03-02T20:30:44.430Z,11.85
2023-03-02T20:33:14.827Z,11.05
2023-03-02T20:35:45.932Z,11.02
2023-03-02T20:38:18.131Z,13.30
2023-03-02T20:40:49.863Z,13.30
2023-03-02T20:43:18.026Z,13.93
2023-03-02T20:45:48.650Z,11.48
2023-03-02T20:48:18.108Z,9.68
2023-03-02T20:50:47.442Z,17.40
2023-03-02T20:53:15.314Z,11.88
2023-03-02T20:55:43.985Z,11.13
2023-03-02T20:58:12.844Z,11.52
2023-03-02T21:00:41.753Z,9.90
2023-03-02T21:03:10.218Z,10.93
2023-03-02T21:05:41.167Z,11.60
2023-03-02T21:08:10.173Z,10.68
2023-03-02T21:10:39.484Z,12.63
2023-03-02T21:13:08.582Z,12.13
2023-03-02T21:15:37.508Z,11.07
2023-03-02T21:18:06.120Z,11.90
2023-03-02T21:20:37.517Z,10.95
2023-03-02T21:23:07.420Z,11.77
2023-03-02T21:25:35.792Z,11.50
2023-03-02T21:28:04.248Z,11.05
2023-03-02T21:30:35.054Z,12.90
2023-03-02T21:33:03.712Z,9.38
2023-03-02T21:35:32.484Z,11.90
2023-03-02T21:38:04.830Z,10.77
2023-03-02T21:40:37.653Z,13.45
2023-03-02T21:43:06.419Z,13.20
2023-03-02T21:45:35.071Z,11.95
2023-03-02T21:48:04.392Z,13.35
2023-03-02T21:50:36.820Z,13.48
2023-03-02T21:53:05.768Z,17.88
2023-03-02T21:55:36.211Z,15.97
2023-03-02T21:58:04.459Z,15.00
2023-03-02T22:00:37.449Z,12.65
2023-03-02T22:03:06.708Z,17.92
2023-03-02T22:05:37.981Z,13.57
2023-03-02T22:08:06.935Z,12.63
2023-03-02T22:10:40.945Z,13.13
2023-03-02T22:13:22.796Z,11.40
2023-03-02T22:15:52.020Z,12.55
2023-03-02T22:18:21.330Z,13.53
2023-03-02T22:20:52.067Z,9.47
2023-03-02T22:23:21.812Z,9.67
2023-03-02T22:25:53.902Z,11.90
2023-03-02T22:28:23.354Z,10.13
2023-03-02T22:30:51.938Z,9.97
2023-03-02T22:33:22.042Z,10.30
2023-03-02T22:35:51.319Z,10.63
2023-03-02T22:38:25.095Z,10.17
2023-03-02T22:40:55.604Z,10.67
2023-03-02T22:43:26.704Z,10.07
2023-03-02T22:45:55.487Z,10.73
2023-03-02T22:48:25.482Z,9.60
2023-03-02T22:50:53.278Z,11.70
2023-03-02T22:53:25.953Z,12.30
2023-03-02T22:56:00.260Z,10.77
2023-03-02T22:58:42.663Z,10.18
2023-03-02T23:01:21.366Z,9.87
2023-03-02T23:03:50.977Z,12.17
2023-03-02T23:06:28.285Z,9.83
2023-03-02T23:08:57.763Z,10.77
2023-03-02T23:11:28.228Z,12.03
2023-03-02T23:13:56.197Z,9.60
2023-03-02T23:16:25.731Z,11.07
2023-03-02T23:18:55.913Z,10.43
2023-03-02T23:21:28.313Z,10.80
2023-03-02T23:23:56.583Z,11.45
2023-03-02T23:26:24.540Z,11.17
2023-03-02T23:28:53.621Z,11.80
2023-03-02T23:31:21.500Z,11.30
2023-03-02T23:33:49.603Z,9.32
2023-03-02T23:36:17.712Z,11.67
2023-03-02T23:38:46.030Z,10.23
2023-03-02T23:41:14.367Z,14.07
2023-03-02T23:43:42.445Z,10.68
2023-03-02T23:46:14.164Z,11.57
2023-03-02T23:48:42.900Z,11.00
2023-03-02T23:51:10.663Z,12.30
2023-03-02T23:53:39.019Z,12.60
2023-03-02T23:56:07.817Z,13.07
2023-03-02T23:58:35.559Z,12.40
